Detalhes do Voo

Voltar

 DETALHES DO VÔO

Piloto: GLD797 Paulo C. Aeronave: TT:ATCCOM.ATC_NAME CESS Distância: 170NM
Origem: SBCT Destino: SBLO Duração: 1.90
Validação: Validado Tipo: Regular Matrícula: PR-GTU
ZFW: 8440 Block Fuel/Init FOB 501/0 Combustível em Voo 501
Passageiros: 0 Carga: 0 Alternativo: SBKP
Hora da Decolagem: 2346 Velocidade de Cruzeiro: 177 Nível de Voo: FL800
Regra Visual: IFR ICAO da Aeronave: C208 Unidade de Peso: Kg
Data: 02/06/2022 Observação: GOLD ACARS Rede: VATSIM
Acidentou?: Não Comentários do Validador: Pontuação do Voo 128.85

 ROTA

ROTA RORI1A GEGOB UZ63 LON DCT
REMARKS OPR/GOLD VIRTUAL AIRLINES PER/A RMK/FROM SBCT RMK/PIC GLD797

 PENALIDADES DO VOO

Para entender como cada item é pontuado, consulte as regras de avaliação.

Nenhuma penalidade registrada para este voo.

 ANÁLISE DO POUSO

Vento durante o pouso: 270º/6 kt Proa durante o pouso: 291
V/S do Pouso: -46 ft/min IAS do Pouso: 71 kt
Força G no pouso: 1.1744 G Bank no pouso: -0.25
Pitch no Pouso 3 Flaps no Pouso 100
Nav Lights ON Landing Lights ON
Beacon Lights ON Strobe Lights ON

 MAPA DO VOO

 PERFIL VERTICAL DO VOO

 EVENTOS PRINCIPAIS DO VOO

DATAEVENTOIASALTITUDE
2022-06-02 23:46:53 GOLD ACARS VERSION 2.1.0.100
2022-06-02 23:46:53 BOARDING02798
2022-06-02 23:49:23 BCN LIGHTS ON02801
2022-06-02 23:49:51 STARTING ENGINE 102801
2022-06-02 23:50:38 TAXI LIGHTS ON02801
2022-06-02 23:51:03 TAXI TO THE RWY02801
2022-06-02 23:54:48 NAV LIGHTS ON02980
2022-06-02 23:54:49 STB LIGHTS ON02980
2022-06-03 00:01:25 LND LIGHTS ON02981
2022-06-03 00:02:09 FLAP 50%02981
2022-06-03 00:02:37 GEAR UP912979
2022-06-03 00:02:44 CLIMBING1013010
2022-06-03 00:02:54 FLAP 0%1013160
2022-06-03 00:02:57 CRUISE1033209
2022-06-03 00:03:00 LANDING1103205
2022-06-03 00:03:04 CLIMBING1173208
2022-06-03 00:03:09 AP ENGAGED1143322
2022-06-03 00:09:33 LIGHTS ON ABOVE 10000 ft9610508
2022-06-03 00:09:42 LND LIGHTS OFF9610641
2022-06-03 00:11:06 CRUISE9612005
2022-06-03 00:22:00 FLAP 0%12212009
2022-06-03 00:27:12 DESCEND12812006
2022-06-03 00:37:15 CLIMBING12211942
2022-06-03 00:37:20 CRUISE12011986
2022-06-03 00:50:23 CLIMBING12712022
2022-06-03 00:50:25 CRUISE12712036
2022-06-03 00:52:22 DESCEND13212008
2022-06-03 00:57:19 CLIMBING13011952
2022-06-03 00:57:23 CRUISE12711985
2022-06-03 01:05:10 TAXI LIGHTS OFF12911985
2022-06-03 01:05:24 TAXI LIGHTS ON12711992
2022-06-03 01:11:32 DESCEND12811984
2022-06-03 01:15:19 LIGHTS OFF BELOW 10000 ft1289496
2022-06-03 01:16:11 LND LIGHTS ON1299052
2022-06-03 01:26:11 FLAP 50%1285130
2022-06-03 01:29:17 CLIMBING762795
2022-06-03 01:29:20 FLAP 0%742849
2022-06-03 01:30:26 CRUISE934011
2022-06-03 01:31:27 CLIMBING1584090
2022-06-03 01:31:31 CRUISE1564122
2022-06-03 01:32:37 FLAP 50%1243487
2022-06-03 01:33:38 FLAP 100%1083132
2022-06-03 01:33:54 LANDING932946
2022-06-03 01:35:02 AP DISENGAGED902392
2022-06-03 01:36:03 LANDED - VS: -46 ft/min 701834
2022-06-03 01:36:15 TAXI TO THE GATE281843
2022-06-03 01:37:25 FLAP 50%01854
2022-06-03 01:37:25 FLAP 0%11855
2022-06-03 01:37:44 LND LIGHTS OFF71860
2022-06-03 01:39:05 AT THE GATE01874
2022-06-03 01:39:11 STOPPING ENGINE 101874
2022-06-03 01:41:04 FLIGHT FINISHED01874

 DADOS DO ACARS

DATA IAS GS ALTITUDE COMBUSTÍVEL USADO OAT FASE DO VOO
2022-06-02 23:48:54 0 0 2801 7 10 BOARDING
2022-06-02 23:49:54 0 0 2801 7 10 BOARDING
2022-06-02 23:50:55 0 0 2801 8 10 BOARDING
2022-06-02 23:51:55 0 8 2800 9 10 BOARDING
2022-06-02 23:52:56 0 8 2981 10 10 TAXI TO THE RWY
2022-06-02 23:53:56 0 0 2981 11 10 TAXI TO THE RWY
2022-06-02 23:54:56 4 20 2979 12 10 TAXI TO THE RWY
2022-06-02 23:55:57 0 0 2980 13 10 TAXI TO THE RWY
2022-06-02 23:56:58 0 0 2980 14 10 TAXI TO THE RWY
2022-06-02 23:57:58 0 0 2980 15 10 TAXI TO THE RWY
2022-06-02 23:58:58 0 0 2980 16 10 TAXI TO THE RWY
2022-06-02 23:59:59 0 0 2980 17 10 TAXI TO THE RWY
2022-06-03 00:00:59 0 14 2980 18 10 TAXI TO THE RWY
2022-06-03 00:02:00 0 10 2981 19 10 TAXI TO THE RWY
2022-06-03 00:03:00 111 117 3203 23 10 TAXI TO THE RWY
2022-06-03 00:04:01 97 115 4552 28 11 LANDING
2022-06-03 00:05:01 100 124 5618 32 10 CLIMBING
2022-06-03 00:06:02 99 130 6778 37 8 CLIMBING
2022-06-03 00:07:02 98 106 8049 41 6 CLIMBING
2022-06-03 00:08:03 97 104 9030 46 4 CLIMBING
2022-06-03 00:09:03 97 95 10034 50 2 CLIMBING
2022-06-03 00:10:04 96 92 10982 55 1 CLIMBING
2022-06-03 00:11:05 94 89 11991 59 0 CLIMBING
2022-06-03 00:12:05 123 120 11996 63 0 CLIMBING
2022-06-03 00:13:05 122 119 12002 66 0 CRUISE
2022-06-03 00:14:06 120 118 12005 68 0 CRUISE
2022-06-03 00:15:06 122 119 11992 71 0 CRUISE
2022-06-03 00:16:07 120 118 11994 74 0 CRUISE
2022-06-03 00:17:07 118 115 11988 77 0 CRUISE
2022-06-03 00:18:08 121 138 12023 79 0 CRUISE
2022-06-03 00:19:08 119 123 11995 82 0 CRUISE
2022-06-03 00:20:09 121 122 11993 85 0 CRUISE
2022-06-03 00:21:09 121 123 12003 88 0 CRUISE
2022-06-03 00:22:10 123 125 12003 91 0 CRUISE
2022-06-03 00:23:10 128 130 12017 94 0 CRUISE
2022-06-03 00:24:11 131 134 11991 97 0 CRUISE
2022-06-03 00:25:11 132 135 12004 100 0 CRUISE
2022-06-03 00:26:12 129 132 11987 103 0 CRUISE
2022-06-03 00:27:12 128 130 12006 106 0 CRUISE
2022-06-03 00:28:13 118 119 11984 109 1 DESCEND
2022-06-03 00:29:13 125 127 12017 112 1 DESCEND
2022-06-03 00:30:14 129 131 12000 115 1 DESCEND
2022-06-03 00:31:15 128 130 11988 118 1 DESCEND
2022-06-03 00:32:15 129 140 12007 122 1 DESCEND
2022-06-03 00:33:15 128 141 12012 125 1 DESCEND
2022-06-03 00:34:16 129 140 12021 128 1 DESCEND
2022-06-03 00:35:16 131 144 12005 131 1 DESCEND
2022-06-03 00:36:17 127 138 11986 134 1 DESCEND
2022-06-03 00:37:18 121 133 11960 137 1 DESCEND
2022-06-03 00:38:18 123 134 11979 140 1 CLIMBING
2022-06-03 00:39:18 125 137 11998 143 1 CRUISE
2022-06-03 00:40:19 126 138 11993 146 1 CRUISE
2022-06-03 00:41:19 127 139 12014 149 1 CRUISE
2022-06-03 00:42:20 128 141 12002 153 1 CRUISE
2022-06-03 00:43:20 127 140 11993 156 1 CRUISE
2022-06-03 00:44:21 128 141 11989 159 1 CRUISE
2022-06-03 00:45:21 128 140 12001 162 1 CRUISE
2022-06-03 00:46:22 129 142 12005 165 1 CRUISE
2022-06-03 00:47:23 129 141 11993 168 1 CRUISE
2022-06-03 00:48:23 129 142 12019 171 1 CRUISE
2022-06-03 00:49:24 130 142 11990 174 1 CRUISE
2022-06-03 00:50:24 127 140 12029 177 1 CRUISE
2022-06-03 00:51:25 128 140 11987 180 1 CLIMBING
2022-06-03 00:52:25 133 146 11989 184 1 CRUISE
2022-06-03 00:53:26 131 143 12008 187 1 DESCEND
2022-06-03 00:54:26 131 143 12013 190 1 DESCEND
2022-06-03 00:55:27 131 143 12012 193 1 DESCEND
2022-06-03 00:56:27 134 142 12002 196 2 DESCEND
2022-06-03 00:57:28 127 134 11985 199 2 DESCEND
2022-06-03 00:58:28 128 131 12028 202 2 CRUISE
2022-06-03 00:59:29 129 130 11984 205 2 CRUISE
2022-06-03 01:00:29 129 132 12015 208 2 CRUISE
2022-06-03 01:01:30 131 134 12005 211 2 CRUISE
2022-06-03 01:02:30 128 130 12003 214 2 CRUISE
2022-06-03 01:03:31 132 135 12018 217 2 CRUISE
2022-06-03 01:04:31 138 142 12008 221 2 CRUISE
2022-06-03 01:05:32 128 130 11988 224 2 CRUISE
2022-06-03 01:06:32 124 126 11988 227 2 CRUISE
2022-06-03 01:07:33 126 128 11992 230 3 CRUISE
2022-06-03 01:08:33 125 127 11980 233 3 CRUISE
2022-06-03 01:09:34 129 131 12013 236 3 CRUISE
2022-06-03 01:10:34 131 133 11993 239 3 CRUISE
2022-06-03 01:11:35 128 130 11966 242 3 CRUISE
2022-06-03 01:12:35 126 130 11220 244 3 DESCEND
2022-06-03 01:13:36 129 133 10610 246 4 DESCEND
2022-06-03 01:14:36 129 131 9937 248 5 DESCEND
2022-06-03 01:15:37 128 130 9350 250 6 DESCEND
2022-06-03 01:16:37 129 129 8768 252 7 DESCEND
2022-06-03 01:17:38 129 128 8099 254 8 DESCEND
2022-06-03 01:18:38 130 129 7611 256 9 DESCEND
2022-06-03 01:19:38 129 126 7157 258 10 DESCEND
2022-06-03 01:20:39 130 127 6679 260 11 DESCEND
2022-06-03 01:21:40 129 127 5969 262 12 DESCEND
2022-06-03 01:22:40 129 128 6008 264 12 DESCEND
2022-06-03 01:23:41 129 127 5868 267 12 DESCEND
2022-06-03 01:24:41 129 128 5701 269 13 DESCEND
2022-06-03 01:25:42 129 129 5360 271 13 DESCEND
2022-06-03 01:26:42 128 132 4200 273 14 DESCEND
2022-06-03 01:27:43 112 128 2776 274 16 DESCEND
2022-06-03 01:28:43 82 100 2782 276 16 DESCEND
2022-06-03 01:29:44 82 101 3260 279 15 DESCEND
2022-06-03 01:30:44 123 136 4020 284 14 CLIMBING
2022-06-03 01:31:45 158 157 3893 287 15 CRUISE
2022-06-03 01:32:45 112 116 3512 289 15 CRUISE
2022-06-03 01:33:46 100 106 3080 291 15 CRUISE
2022-06-03 01:34:46 86 94 2531 293 17 CRUISE
2022-06-03 01:35:47 85 91 1886 294 17 LANDING
2022-06-03 01:36:47 0 10 1849 296 17 LANDING
2022-06-03 01:37:48 6 16 1860 297 17 TAXI TO THE GATE
2022-06-03 01:38:48 0 14 1871 298 17 TAXI TO THE GATE
2022-06-03 01:39:49 0 0 1874 298 17 TAXI TO THE GATE
2022-06-03 01:40:49 0 0 1874 298 17 AT THE GATE